createdAt,value
2023-02-16T00:01:59.445Z,87.95
2023-02-16T00:04:29.484Z,88.43
2023-02-16T00:06:58.555Z,84.90
2023-02-16T00:09:29.765Z,94.65
2023-02-16T00:12:25.379Z,78.78
2023-02-16T00:14:54.363Z,94.75
2023-02-16T00:17:24.392Z,92.43
2023-02-16T00:19:53.069Z,89.30
2023-02-16T00:22:21.693Z,83.03
2023-02-16T00:24:54.232Z,94.88
2023-02-16T00:27:22.654Z,83.45
2023-02-16T00:29:50.956Z,95.53
2023-02-16T00:32:19.573Z,100.55
2023-02-16T00:34:49.783Z,93.20
2023-02-16T00:37:18.996Z,76.40
2023-02-16T00:39:48.008Z,88.43
2023-02-16T00:42:21.242Z,75.40
2023-02-16T00:44:52.034Z,90.80
2023-02-16T00:47:23.397Z,81.07
2023-02-16T00:49:55.228Z,81.93
2023-02-16T00:52:32.444Z,95.93
2023-02-16T00:55:01.659Z,77.38
2023-02-16T00:57:34.356Z,68.57
2023-02-16T01:00:06.755Z,78.28
2023-02-16T01:02:35.217Z,77.35
2023-02-16T01:05:05.038Z,75.07
2023-02-16T01:07:51.077Z,77.43
2023-02-16T01:10:37.451Z,74.78
2023-02-16T01:13:06.315Z,66.47
2023-02-16T01:15:34.858Z,78.78
2023-02-16T01:18:03.449Z,72.60
2023-02-16T01:20:35.387Z,79.45
2023-02-16T01:23:03.999Z,67.68
2023-02-16T01:25:32.439Z,63.95
2023-02-16T01:28:01.161Z,66.28
2023-02-16T01:30:29.867Z,69.25
2023-02-16T01:33:00.635Z,66.93
2023-02-16T01:35:34.182Z,67.53
2023-02-16T01:38:05.355Z,67.22
2023-02-16T01:40:42.079Z,72.93
2023-02-16T01:43:20.494Z,67.55
2023-02-16T01:45:56.605Z,61.88
2023-02-16T01:48:29.530Z,68.25
2023-02-16T01:51:05.619Z,67.85
2023-02-16T01:53:39.310Z,58.25
2023-02-16T01:56:16.563Z,62.88
2023-02-16T01:58:49.064Z,81.80
2023-02-16T02:01:40.383Z,70.72
2023-02-16T02:04:56.559Z,75.35
2023-02-16T02:07:30.515Z,69.93
2023-02-16T02:10:04.425Z,62.13
2023-02-16T02:12:38.615Z,65.65
2023-02-16T02:15:09.367Z,74.28
2023-02-16T02:17:38.532Z,68.80
2023-02-16T02:20:17.410Z,80.22
2023-02-16T02:23:33.864Z,78.72
2023-02-16T02:26:36.236Z,69.38
2023-02-16T02:29:20.259Z,66.65
2023-02-16T02:31:59.122Z,74.30
2023-02-16T02:34:39.083Z,84.85
2023-02-16T02:37:12.712Z,69.97
2023-02-16T02:39:53.413Z,88.35
2023-02-16T02:42:31.569Z,71.90
2023-02-16T02:45:07.227Z,75.82
2023-02-16T02:47:40.226Z,69.00
2023-02-16T02:50:41.985Z,64.30
2023-02-16T02:53:16.140Z,92.82
2023-02-16T02:56:05.816Z,70.43
2023-02-16T02:59:09.003Z,75.80
2023-02-16T03:01:40.074Z,76.65
2023-02-16T03:04:12.409Z,67.07
2023-02-16T03:06:43.515Z,76.57
2023-02-16T03:09:14.384Z,64.15
2023-02-16T03:12:01.014Z,72.07
2023-02-16T03:14:34.731Z,68.95
2023-02-16T03:17:25.139Z,70.28
2023-02-16T03:20:12.735Z,78.28
2023-02-16T03:22:58.826Z,75.22
2023-02-16T03:25:49.642Z,76.05
2023-02-16T03:28:36.843Z,77.57
2023-02-16T03:31:09.893Z,79.20
2023-02-16T03:33:38.452Z,76.43
2023-02-16T03:36:08.168Z,85.55
2023-02-16T03:38:37.751Z,79.78
2023-02-16T03:41:08.690Z,86.03
2023-02-16T03:43:37.230Z,73.38
2023-02-16T03:46:07.322Z,66.97
2023-02-16T03:48:35.754Z,68.82
2023-02-16T03:51:04.677Z,70.40
2023-02-16T03:53:33.503Z,84.97
2023-02-16T03:56:02.233Z,81.07
2023-02-16T03:58:31.135Z,85.05
2023-02-16T04:00:59.851Z,76.85
2023-02-16T04:03:29.484Z,84.20
2023-02-16T04:05:58.414Z,83.88
2023-02-16T04:08:26.852Z,71.38
2023-02-16T04:10:57.517Z,64.75
2023-02-16T04:13:25.171Z,75.18
2023-02-16T04:15:53.855Z,81.97
2023-02-16T04:18:22.294Z,112.28
2023-02-16T04:20:52.467Z,91.63
2023-02-16T04:23:20.923Z,86.47
2023-02-16T04:25:49.674Z,79.50
2023-02-16T04:28:17.944Z,75.03
2023-02-16T04:30:46.434Z,93.47
2023-02-16T04:33:17.091Z,84.68
2023-02-16T04:35:45.535Z,82.60
2023-02-16T04:38:15.114Z,79.68
2023-02-16T04:40:43.981Z,74.68
2023-02-16T04:43:12.417Z,87.03
2023-02-16T04:45:41.413Z,83.38
2023-02-16T04:48:09.781Z,89.55
2023-02-16T04:50:38.040Z,92.85
2023-02-16T04:53:06.268Z,91.93
2023-02-16T04:55:35.869Z,90.07
2023-02-16T04:58:04.601Z,90.18
2023-02-16T05:00:36.231Z,77.72
2023-02-16T05:03:05.201Z,90.27
2023-02-16T05:05:35.163Z,100.53
2023-02-16T05:08:06.763Z,79.47
2023-02-16T05:10:37.784Z,97.90
2023-02-16T05:13:24.149Z,96.75
2023-02-16T05:15:53.508Z,85.22
2023-02-16T05:18:22.121Z,90.28
2023-02-16T05:21:08.140Z,76.30
2023-02-16T05:23:36.833Z,81.40
2023-02-16T05:26:06.582Z,78.90
2023-02-16T05:28:35.134Z,85.32
2023-02-16T05:31:05.934Z,81.60
2023-02-16T05:33:34.628Z,85.70
2023-02-16T05:36:03.544Z,88.10
2023-02-16T05:38:31.880Z,87.93
2023-02-16T05:41:05.756Z,84.32
2023-02-16T05:43:35.602Z,89.70
2023-02-16T05:46:09.049Z,90.40
2023-02-16T05:48:37.435Z,74.22
2023-02-16T05:51:06.234Z,79.63
2023-02-16T05:53:34.867Z,80.53
2023-02-16T05:56:03.220Z,92.38
2023-02-16T05:58:32.331Z,85.95
2023-02-16T06:01:02.428Z,89.22
2023-02-16T06:03:31.325Z,91.57
2023-02-16T06:06:01.708Z,86.35
2023-02-16T06:08:30.218Z,86.60
2023-02-16T06:10:58.718Z,84.18
2023-02-16T06:13:28.072Z,88.25
2023-02-16T06:15:58.077Z,93.07
2023-02-16T06:18:28.193Z,80.10
2023-02-16T06:20:58.305Z,89.93
2023-02-16T06:23:26.605Z,79.53
2023-02-16T06:25:54.995Z,85.10
2023-02-16T06:28:23.858Z,86.40
2023-02-16T06:30:52.496Z,92.25
2023-02-16T06:33:22.729Z,84.40
2023-02-16T06:35:56.704Z,81.07
2023-02-16T06:38:25.242Z,83.78
2023-02-16T06:40:56.222Z,78.18
2023-02-16T06:43:25.548Z,88.72
2023-02-16T06:45:54.035Z,82.82
2023-02-16T06:48:22.609Z,85.22
2023-02-16T06:50:59.212Z,83.90
2023-02-16T06:53:28.064Z,88.88
2023-02-16T06:55:56.527Z,94.70
2023-02-16T06:58:24.988Z,85.53
2023-02-16T07:00:55.931Z,75.53
2023-02-16T07:03:27.453Z,86.28
2023-02-16T07:05:57.217Z,76.60
2023-02-16T07:08:25.726Z,82.97
2023-02-16T07:10:56.368Z,72.38
2023-02-16T07:13:28.822Z,81.40
2023-02-16T07:15:57.693Z,71.75
2023-02-16T07:18:26.474Z,77.38
2023-02-16T07:20:59.277Z,83.28
2023-02-16T07:23:29.155Z,77.68
2023-02-16T07:25:58.140Z,83.72
2023-02-16T07:28:29.194Z,79.05
2023-02-16T07:30:59.195Z,79.35
2023-02-16T07:33:27.950Z,77.85
2023-02-16T07:35:58.464Z,81.43
2023-02-16T07:38:27.497Z,78.85
2023-02-16T07:40:57.470Z,66.40
2023-02-16T07:43:26.739Z,68.22
2023-02-16T07:45:57.264Z,65.88
2023-02-16T07:48:25.577Z,75.18
2023-02-16T07:50:56.318Z,70.93
2023-02-16T07:53:24.815Z,72.38
2023-02-16T07:55:53.127Z,68.53
2023-02-16T07:58:28.696Z,73.28
2023-02-16T08:00:57.826Z,71.07
2023-02-16T08:03:26.400Z,61.00
2023-02-16T08:05:54.773Z,70.63
2023-02-16T08:08:24.346Z,69.47
2023-02-16T08:10:54.116Z,69.07
2023-02-16T08:13:26.246Z,66.90
2023-02-16T08:15:54.551Z,62.30
2023-02-16T08:18:23.250Z,66.68
2023-02-16T08:21:03.662Z,63.10
2023-02-16T08:23:33.103Z,67.80
2023-02-16T08:26:01.821Z,62.92
2023-02-16T08:28:31.428Z,64.00
2023-02-16T08:31:06.791Z,58.55
2023-02-16T08:33:36.683Z,60.67
2023-02-16T08:36:19.534Z,68.00
2023-02-16T08:38:51.051Z,63.33
2023-02-16T08:41:27.998Z,68.22
2023-02-16T08:43:58.322Z,64.95
2023-02-16T08:46:26.856Z,62.60
2023-02-16T08:49:00.133Z,61.25
2023-02-16T08:51:31.378Z,63.85
2023-02-16T08:54:04.278Z,58.42
2023-02-16T08:56:34.622Z,58.30
2023-02-16T08:59:08.419Z,64.93
2023-02-16T09:01:37.347Z,64.75
2023-02-16T09:04:06.000Z,65.57
2023-02-16T09:06:34.823Z,64.88
2023-02-16T09:09:05.041Z,59.97
2023-02-16T09:11:37.411Z,59.38
2023-02-16T09:14:09.380Z,64.72
2023-02-16T09:16:45.565Z,62.43
2023-02-16T09:19:16.566Z,58.40
2023-02-16T09:21:46.983Z,57.20
2023-02-16T09:24:31.025Z,59.47
2023-02-16T09:27:01.024Z,60.65
2023-02-16T09:29:30.634Z,55.83
2023-02-16T09:31:59.283Z,61.97
2023-02-16T09:34:28.045Z,60.25
2023-02-16T09:36:56.570Z,63.63
2023-02-16T09:39:27.317Z,62.60
2023-02-16T09:42:10.236Z,58.35
2023-02-16T09:44:49.693Z,55.00
2023-02-16T09:47:25.439Z,52.17
2023-02-16T09:49:57.189Z,52.58
2023-02-16T09:52:34.254Z,51.75
2023-02-16T09:55:06.986Z,48.92
2023-02-16T09:57:44.574Z,47.55
2023-02-16T10:00:44.983Z,43.03
2023-02-16T10:03:26.914Z,43.92
2023-02-16T10:06:06.458Z,49.72
2023-02-16T10:08:40.566Z,53.75
2023-02-16T10:11:28.737Z,44.90
2023-02-16T10:14:01.406Z,46.97
2023-02-16T10:16:37.495Z,42.10
2023-02-16T10:19:16.630Z,44.72
2023-02-16T10:21:48.593Z,43.70
2023-02-16T10:24:17.020Z,42.88
2023-02-16T10:26:49.493Z,38.83
2023-02-16T10:29:22.242Z,43.17
2023-02-16T10:32:00.774Z,40.50
2023-02-16T10:34:41.525Z,38.17
2023-02-16T10:37:25.065Z,37.40
2023-02-16T10:40:00.598Z,38.67
2023-02-16T10:42:41.922Z,36.03
2023-02-16T10:45:24.777Z,35.50
2023-02-16T10:47:55.819Z,37.95
2023-02-16T10:50:28.696Z,37.25
2023-02-16T10:52:59.910Z,33.80
2023-02-16T10:55:28.894Z,31.95
2023-02-16T10:58:01.018Z,32.38
2023-02-16T11:00:44.429Z,32.30
2023-02-16T11:05:47.805Z,31.58
2023-02-16T11:08:16.279Z,30.17
2023-02-16T11:10:48.858Z,31.13
2023-02-16T11:13:28.441Z,31.98
2023-02-16T11:16:00.013Z,30.08
2023-02-16T11:18:45.364Z,29.63
2023-02-16T11:21:14.459Z,24.95
2023-02-16T11:23:47.214Z,29.23
2023-02-16T11:26:28.867Z,29.70
2023-02-16T11:29:14.532Z,28.83
2023-02-16T11:31:43.392Z,28.60
2023-02-16T11:34:23.076Z,26.40
2023-02-16T11:36:51.688Z,27.52
2023-02-16T11:39:24.540Z,26.67
2023-02-16T11:41:55.241Z,26.90
2023-02-16T11:44:29.119Z,26.88
2023-02-16T11:46:58.488Z,23.30
2023-02-16T11:49:35.290Z,24.60
2023-02-16T11:52:22.519Z,24.75
2023-02-16T11:54:51.879Z,19.73
2023-02-16T11:57:27.034Z,20.08
2023-02-16T11:59:55.998Z,15.73
2023-02-16T12:02:52.123Z,17.10
2023-02-16T12:05:28.428Z,16.60
2023-02-16T12:08:15.257Z,17.63
2023-02-16T12:10:52.892Z,17.38
2023-02-16T12:13:30.173Z,17.60
2023-02-16T12:16:08.270Z,18.40
2023-02-16T12:18:44.294Z,14.85
2023-02-16T12:21:22.394Z,16.35
2023-02-16T12:24:00.546Z,16.95
2023-02-16T12:26:39.446Z,13.95
2023-02-16T12:29:21.613Z,16.90
2023-02-16T12:32:03.738Z,13.68
2023-02-16T12:34:48.505Z,17.05
2023-02-16T12:37:28.975Z,14.43
2023-02-16T12:40:05.067Z,17.20
2023-02-16T12:42:51.187Z,17.48
2023-02-16T12:45:22.262Z,15.73
2023-02-16T12:47:58.075Z,19.27
2023-02-16T12:50:28.611Z,16.13
2023-02-16T12:53:04.732Z,14.05
2023-02-16T12:55:38.233Z,15.85
2023-02-16T12:58:17.372Z,16.67
2023-02-16T13:00:49.558Z,16.25
2023-02-16T13:03:30.673Z,15.43
2023-02-16T13:06:13.304Z,11.45
2023-02-16T13:08:52.366Z,11.30
2023-02-16T13:11:31.206Z,14.20
2023-02-16T13:14:02.570Z,12.20
2023-02-16T13:16:42.365Z,11.85
2023-02-16T13:19:13.893Z,12.73
2023-02-16T13:22:10.684Z,10.98
2023-02-16T13:24:52.384Z,13.45
2023-02-16T13:27:34.472Z,12.00
2023-02-16T13:30:33.777Z,14.77
2023-02-16T13:33:24.632Z,14.02
2023-02-16T13:36:25.304Z,11.82
2023-02-16T13:39:28.621Z,12.32
2023-02-16T13:42:23.401Z,13.98
2023-02-16T13:44:54.789Z,17.17
2023-02-16T13:47:28.130Z,13.48
2023-02-16T13:50:01.181Z,11.30
2023-02-16T13:55:01.677Z,11.88
2023-02-16T13:57:58.305Z,9.80
2023-02-16T14:00:32.621Z,13.73
2023-02-16T14:03:04.255Z,13.75
2023-02-16T14:05:36.862Z,11.85
2023-02-16T14:08:24.280Z,12.68
2023-02-16T14:11:14.693Z,16.42
2023-02-16T14:13:53.379Z,12.38
2023-02-16T14:16:35.364Z,12.48
2023-02-16T14:19:06.943Z,15.18
2023-02-16T14:21:41.642Z,15.27
2023-02-16T14:24:15.073Z,13.13
2023-02-16T14:27:02.011Z,13.68
2023-02-16T14:29:37.828Z,13.05
2023-02-16T14:32:17.515Z,15.77
2023-02-16T14:34:52.946Z,14.55
2023-02-16T14:37:38.719Z,12.52
2023-02-16T14:40:16.341Z,15.48
2023-02-16T14:42:59.505Z,13.73
2023-02-16T14:46:11.230Z,15.48
2023-02-16T14:49:06.580Z,13.40
2023-02-16T14:52:00.763Z,15.98
2023-02-16T14:54:55.007Z,19.45
2023-02-16T14:57:31.170Z,13.30
2023-02-16T15:00:04.365Z,16.45
2023-02-16T15:02:35.962Z,15.23
2023-02-16T15:05:18.811Z,14.73
2023-02-16T15:07:50.360Z,14.85
2023-02-16T15:10:26.975Z,14.60
2023-02-16T15:12:57.772Z,15.50
2023-02-16T15:15:31.626Z,16.05
2023-02-16T15:18:02.438Z,16.88
2023-02-16T15:20:34.230Z,14.68
2023-02-16T15:23:06.553Z,14.00
2023-02-16T15:25:39.481Z,15.48
2023-02-16T15:28:22.829Z,14.60
2023-02-16T15:33:34.585Z,14.25
2023-02-16T15:36:07.680Z,12.95
2023-02-16T15:41:07.172Z,17.05
2023-02-16T15:43:40.247Z,20.50
2023-02-16T15:48:46.148Z,21.83
2023-02-16T15:51:19.166Z,19.80
2023-02-16T15:56:29.478Z,15.65
2023-02-16T15:59:02.399Z,19.48
2023-02-16T16:01:37.466Z,20.83
2023-02-16T16:04:18.677Z,17.92
2023-02-16T16:06:48.929Z,29.42
2023-02-16T16:09:23.790Z,33.63
2023-02-16T16:11:53.045Z,24.55
2023-02-16T16:14:22.886Z,26.48
2023-02-16T16:16:52.856Z,35.20
2023-02-16T16:19:26.453Z,31.08
2023-02-16T16:21:56.305Z,25.60
2023-02-16T16:24:35.294Z,27.50
2023-02-16T16:27:07.606Z,34.28
2023-02-16T16:29:44.394Z,33.67
2023-02-16T16:32:21.229Z,34.92
2023-02-16T16:34:51.672Z,44.25
2023-02-16T16:37:26.916Z,30.83
2023-02-16T16:40:05.732Z,32.45
2023-02-16T16:42:34.843Z,35.42
2023-02-16T16:45:07.586Z,34.88
2023-02-16T16:47:39.866Z,35.58
2023-02-16T16:50:33.969Z,35.45
2023-02-16T16:53:02.910Z,39.13
2023-02-16T16:55:35.473Z,50.75
2023-02-16T16:58:07.954Z,52.53
2023-02-16T17:00:38.604Z,61.08
2023-02-16T17:03:08.233Z,59.53
2023-02-16T17:05:40.218Z,55.92
2023-02-16T17:08:08.924Z,57.97
2023-02-16T17:10:38.862Z,45.75
2023-02-16T17:13:07.356Z,50.55
2023-02-16T17:15:40.688Z,51.83
2023-02-16T17:18:09.129Z,58.22
2023-02-16T17:20:38.371Z,57.20
2023-02-16T17:23:06.698Z,59.67
2023-02-16T17:25:36.644Z,55.92
2023-02-16T17:28:05.294Z,56.58
2023-02-16T17:30:33.846Z,57.10
2023-02-16T17:33:02.243Z,54.25
2023-02-16T17:35:31.634Z,58.15
2023-02-16T17:38:08.269Z,55.00
2023-02-16T17:40:37.021Z,56.08
2023-02-16T17:43:12.486Z,44.65
2023-02-16T17:45:41.002Z,37.17
2023-02-16T17:48:09.645Z,30.30
2023-02-16T17:50:38.058Z,30.70
2023-02-16T17:53:13.038Z,28.33
2023-02-16T17:55:41.902Z,25.80
2023-02-16T17:58:10.159Z,27.70
2023-02-16T18:00:39.170Z,22.58
2023-02-16T18:03:07.891Z,17.08
2023-02-16T18:05:36.609Z,18.58
2023-02-16T18:08:05.707Z,17.45
2023-02-16T18:10:38.310Z,16.98
2023-02-16T18:13:06.812Z,20.13
2023-02-16T18:15:35.245Z,19.23
2023-02-16T18:18:03.880Z,16.13
2023-02-16T18:20:32.435Z,19.50
2023-02-16T18:23:01.003Z,15.18
2023-02-16T18:25:30.216Z,17.52
2023-02-16T18:28:00.437Z,14.32
2023-02-16T18:30:29.328Z,20.25
2023-02-16T18:32:58.021Z,23.13
2023-02-16T18:35:26.362Z,24.10
2023-02-16T18:37:57.527Z,24.23
2023-02-16T18:40:26.053Z,25.38
2023-02-16T18:42:54.356Z,26.42
2023-02-16T18:45:23.667Z,18.70
2023-02-16T18:47:52.126Z,17.75
2023-02-16T18:50:20.496Z,16.30
2023-02-16T18:52:48.871Z,20.83
2023-02-16T18:55:17.178Z,19.88
2023-02-16T18:57:45.765Z,23.58
2023-02-16T19:00:15.379Z,23.70
2023-02-16T19:02:44.852Z,29.25
2023-02-16T19:05:13.737Z,24.63
2023-02-16T19:07:42.151Z,23.42
2023-02-16T19:10:12.248Z,22.15
2023-02-16T19:12:40.791Z,18.20
2023-02-16T19:15:09.822Z,20.08
2023-02-16T19:17:39.026Z,19.92
2023-02-16T19:20:13.219Z,17.73
2023-02-16T19:22:41.538Z,21.90
2023-02-16T19:25:10.175Z,21.23
2023-02-16T19:27:39.129Z,21.75
2023-02-16T19:30:08.354Z,32.28
2023-02-16T19:32:36.976Z,30.90
2023-02-16T19:35:05.529Z,28.13
2023-02-16T19:37:35.502Z,40.35
2023-02-16T19:40:04.430Z,27.85
2023-02-16T19:42:33.218Z,27.83
2023-02-16T19:45:01.577Z,25.40
2023-02-16T19:47:30.161Z,21.75
2023-02-16T19:49:58.643Z,19.80
2023-02-16T19:52:27.085Z,23.02
2023-02-16T19:54:56.464Z,18.70
2023-02-16T19:57:25.766Z,21.80
2023-02-16T19:59:54.211Z,19.58
2023-02-16T20:02:22.911Z,18.45
2023-02-16T20:04:51.296Z,18.48
2023-02-16T20:07:19.584Z,18.65
2023-02-16T20:09:47.882Z,17.90
2023-02-16T20:12:17.252Z,19.75
2023-02-16T20:14:46.047Z,23.58
2023-02-16T20:17:14.657Z,22.80
2023-02-16T20:19:43.243Z,20.10
2023-02-16T20:22:11.820Z,21.75
2023-02-16T20:24:40.375Z,24.60
2023-02-16T20:27:08.849Z,22.50
2023-02-16T20:29:38.541Z,18.90
2023-02-16T20:32:07.248Z,18.48
2023-02-16T20:34:35.784Z,17.67
2023-02-16T20:37:04.421Z,20.23
2023-02-16T20:39:32.913Z,18.00
2023-02-16T20:42:01.574Z,17.90
2023-02-16T20:44:30.251Z,20.33
2023-02-16T20:46:59.901Z,18.00
2023-02-16T20:49:28.503Z,21.60
2023-02-16T20:51:56.776Z,16.38
2023-02-16T20:54:25.499Z,16.63
2023-02-16T20:56:55.100Z,17.63
2023-02-16T20:59:23.579Z,17.33
2023-02-16T21:01:52.862Z,15.38
2023-02-16T21:04:22.773Z,19.65
2023-02-16T21:06:51.602Z,17.20
2023-02-16T21:09:19.867Z,16.90
2023-02-16T21:11:49.012Z,18.10
2023-02-16T21:14:17.388Z,14.15
2023-02-16T21:16:46.664Z,18.40
2023-02-16T21:19:22.787Z,20.75
2023-02-16T21:21:53.330Z,24.25
2023-02-16T21:24:21.794Z,23.23
2023-02-16T21:26:50.437Z,24.50
2023-02-16T21:29:18.930Z,18.95
2023-02-16T21:31:47.735Z,18.23
2023-02-16T21:34:16.199Z,20.85
2023-02-16T21:36:44.725Z,15.82
2023-02-16T21:39:14.776Z,16.75
2023-02-16T21:41:42.166Z,20.95
2023-02-16T21:44:12.622Z,19.50
2023-02-16T21:46:42.461Z,19.92
2023-02-16T21:49:14.525Z,19.73
2023-02-16T21:51:44.718Z,17.00
2023-02-16T21:54:16.842Z,19.20
2023-02-16T21:56:45.537Z,18.83
2023-02-16T21:59:19.011Z,16.60
2023-02-16T22:01:53.049Z,20.92
2023-02-16T22:04:23.831Z,15.98
2023-02-16T22:06:52.742Z,18.13
2023-02-16T22:09:24.508Z,17.25
2023-02-16T22:11:53.904Z,15.85
2023-02-16T22:14:22.749Z,12.13
2023-02-16T22:16:51.851Z,15.05
2023-02-16T22:19:22.907Z,16.40
2023-02-16T22:21:51.586Z,13.05
2023-02-16T22:24:22.025Z,15.95
2023-02-16T22:26:51.286Z,14.93
2023-02-16T22:29:20.086Z,14.02
2023-02-16T22:31:50.470Z,17.90
2023-02-16T22:34:21.125Z,13.50
2023-02-16T22:36:50.038Z,15.52
2023-02-16T22:39:21.684Z,14.43
2023-02-16T22:41:50.764Z,13.38
2023-02-16T22:44:19.450Z,14.05
2023-02-16T22:46:48.076Z,13.27
2023-02-16T22:49:16.523Z,16.60
2023-02-16T22:51:45.105Z,17.02
2023-02-16T22:54:15.422Z,15.82
2023-02-16T22:56:45.667Z,14.77
2023-02-16T22:59:16.485Z,14.77
2023-02-16T23:01:45.519Z,15.70
2023-02-16T23:04:16.924Z,13.43
2023-02-16T23:06:47.209Z,13.45
2023-02-16T23:09:18.632Z,14.32
2023-02-16T23:11:49.428Z,15.60
2023-02-16T23:14:18.079Z,15.05
2023-02-16T23:16:48.257Z,14.95
2023-02-16T23:19:18.684Z,14.88
2023-02-16T23:21:48.026Z,13.65
2023-02-16T23:24:18.903Z,15.05
2023-02-16T23:26:49.435Z,15.10
2023-02-16T23:29:18.864Z,18.95
2023-02-16T23:31:49.334Z,16.05
2023-02-16T23:34:21.512Z,16.50
2023-02-16T23:36:50.235Z,16.30
2023-02-16T23:39:20.322Z,14.52
2023-02-16T23:41:49.878Z,14.65
2023-02-16T23:44:18.542Z,15.23
2023-02-16T23:46:47.399Z,10.63
2023-02-16T23:49:16.082Z,13.07
2023-02-16T23:51:45.066Z,10.02
2023-02-16T23:54:14.268Z,12.10
2023-02-16T23:56:42.604Z,12.52
2023-02-16T23:59:11.902Z,12.45
